Time;durP1;ratioP1;P1;durP2;ratioP2;P2;SDS_P1;SDS_P2;PMS_P1;PMS_P2;Temp;Humidity;BMP_temperature;BMP_pressure;BME280_temperature;BME280_humidity;BME280_pressure;Samples;Min_cycle;Max_cycle;Signal;HPM_P1;HPM_P2
2021/05/01 00:00:09;;;;;;;;;;;;;;;5.33;56.26;101354.09;5034626;28;19919;-74
2021/05/01 00:02:35;;;;;;;;;;;;;;;5.27;56.02;101357.69;5035506;28;19959;-74
2021/05/01 00:05:00;;;;;;;;;;;;;;;5.20;56.20;101357.75;5028078;28;19925;-74
2021/05/01 00:07:25;;;;;;;;;;;;;;;5.14;56.24;101355.13;5035022;28;20306;-74
2021/05/01 00:09:50;;;;;;;;;;;;;;;5.10;56.05;101352.03;5031687;28;19921;-74
2021/05/01 00:12:16;;;;;;;;;;;;;;;5.03;56.11;101356.69;5029530;28;19928;-74
2021/05/01 00:14:41;;;;;;;;;;;;;;;5.00;56.06;101352.56;5030344;28;19916;-73
2021/05/01 00:17:06;;;;;;;;;;;;;;;4.95;56.01;101359.69;5030824;28;20263;-73
2021/05/01 00:19:32;;;;;;;;;;;;;;;4.91;55.65;101353.91;5032709;28;20405;-74
2021/05/01 00:21:57;;;;;;;;;;;;;;;4.86;55.93;101354.56;5016885;28;20000;-74
2021/05/01 00:24:22;;;;;;;;;;;;;;;4.82;55.75;101356.03;5032637;28;20021;-73
2021/05/01 00:26:47;;;;;;;;;;;;;;;4.77;55.90;101353.16;5035177;28;19924;-74
2021/05/01 00:29:13;;;;;;;;;;;;;;;4.72;55.90;101355.72;5033772;28;19913;-73
2021/05/01 00:31:38;;;;;;;;;;;;;;;4.67;55.63;101358.25;5017383;28;20369;-73
2021/05/01 00:34:03;;;;;;;;;;;;;;;4.64;55.79;101353.31;5032316;28;19912;-74
2021/05/01 00:36:29;;;;;;;;;;;;;;;4.61;56.00;101353.72;5025030;28;19921;-73
2021/05/01 00:38:54;;;;;;;;;;;;;;;4.60;55.62;101352.09;5028609;28;19916;-74
2021/05/01 00:41:20;;;;;;;;;;;;;;;4.59;55.54;101356.66;5035415;28;19921;-74
2021/05/01 00:43:45;;;;;;;;;;;;;;;4.57;55.77;101349.81;5034343;28;19996;-74
2021/05/01 00:46:10;;;;;;;;;;;;;;;4.56;55.64;101348.19;5029345;28;19998;-74
2021/05/01 00:48:36;;;;;;;;;;;;;;;4.51;55.36;101348.00;5033955;28;20318;-75
2021/05/01 00:51:01;;;;;;;;;;;;;;;4.42;55.44;101350.97;5032303;28;19913;-73
2021/05/01 00:53:26;;;;;;;;;;;;;;;4.33;55.74;101346.88;5034514;28;19998;-74
2021/05/01 00:55:52;;;;;;;;;;;;;;;4.29;55.82;101356.47;5014287;28;19913;-74
2021/05/01 00:58:17;;;;;;;;;;;;;;;4.25;55.77;101349.84;5034596;28;20027;-73
2021/05/01 01:03:19;;;;;;;;;;;;;;;4.15;55.70;101349.50;5035101;28;20043;-73
2021/05/01 01:05:45;;;;;;;;;;;;;;;4.08;55.13;101354.09;5029740;28;20012;-73
2021/05/01 01:08:10;;;;;;;;;;;;;;;4.04;56.09;101350.19;5034045;28;20417;-74
2021/05/01 01:10:35;;;;;;;;;;;;;;;3.98;55.00;101355.41;5029951;28;19913;-75
2021/05/01 01:13:00;;;;;;;;;;;;;;;3.94;55.68;101358.75;5031733;28;19913;-74
2021/05/01 01:15:26;;;;;;;;;;;;;;;3.86;55.70;101359.81;5031300;28;19913;-73
2021/05/01 01:17:52;;;;;;;;;;;;;;;3.82;56.00;101355.91;5048890;28;20414;-74
2021/05/01 01:20:17;;;;;;;;;;;;;;;3.76;55.07;101356.75;4996190;28;20008;-73
2021/05/01 01:22:42;;;;;;;;;;;;;;;3.72;55.73;101350.97;5033970;28;19978;-73
2021/05/01 01:25:08;;;;;;;;;;;;;;;3.67;55.51;101358.88;5032877;28;20389;-74
2021/05/01 01:27:33;;;;;;;;;;;;;;;3.64;55.52;101358.47;5034657;28;19913;-74
2021/05/01 01:29:58;;;;;;;;;;;;;;;3.60;55.35;101358.09;5027321;28;19917;-73
2021/05/01 01:32:23;;;;;;;;;;;;;;;3.55;55.85;101360.59;5034513;28;20325;-74
2021/05/01 01:34:49;;;;;;;;;;;;;;;3.49;55.49;101356.88;5016669;28;19960;-73
2021/05/01 01:37:14;;;;;;;;;;;;;;;3.44;55.88;101366.66;5000207;28;19913;-74
2021/05/01 01:39:39;;;;;;;;;;;;;;;3.40;55.77;101366.22;5023516;28;19943;-74
2021/05/01 01:42:05;;;;;;;;;;;;;;;3.35;55.66;101360.63;5028175;28;20420;-73
2021/05/01 01:44:30;;;;;;;;;;;;;;;3.30;55.47;101366.69;5032586;28;19954;-74
2021/05/01 01:46:55;;;;;;;;;;;;;;;3.27;55.80;101368.94;5027970;28;19913;-74
2021/05/01 01:49:20;;;;;;;;;;;;;;;3.24;55.40;101369.38;5031601;28;20317;-73
2021/05/01 01:51:46;;;;;;;;;;;;;;;3.20;55.47;101368.16;5032560;28;19913;-74
2021/05/01 01:54:11;;;;;;;;;;;;;;;3.18;55.51;101359.44;5030665;28;19939;-73
2021/05/01 01:56:37;;;;;;;;;;;;;;;3.15;55.68;101365.25;5034308;28;19932;-73
2021/05/01 01:59:02;;;;;;;;;;;;;;;3.10;55.40;101361.31;5032924;28;19913;-74
2021/05/01 02:01:27;;;;;;;;;;;;;;;3.06;55.37;101360.09;5032870;28;20004;-74
2021/05/01 02:03:53;;;;;;;;;;;;;;;3.04;55.21;101364.84;5029640;28;20008;-73
2021/05/01 02:06:19;;;;;;;;;;;;;;;2.99;54.75;101366.53;5032802;28;19917;-74
2021/05/01 02:08:45;;;;;;;;;;;;;;;2.95;55.39;101370.69;5031442;28;20403;-73
2021/05/01 02:11:10;;;;;;;;;;;;;;;2.92;55.16;101371.06;5033250;28;19913;-73
2021/05/01 02:13:35;;;;;;;;;;;;;;;2.88;55.63;101367.97;5031874;28;19956;-73
2021/05/01 02:16:01;;;;;;;;;;;;;;;2.83;55.03;101367.78;5033156;28;19995;-73
2021/05/01 02:18:26;;;;;;;;;;;;;;;2.80;54.96;101371.72;5030932;28;19935;-73
2021/05/01 02:20:51;;;;;;;;;;;;;;;2.80;55.18;101378.97;5031330;28;19913;-74
2021/05/01 02:23:16;;;;;;;;;;;;;;;2.80;54.57;101376.28;5030241;28;19913;-74
2021/05/01 02:25:42;;;;;;;;;;;;;;;2.80;54.59;101370.88;5033720;28;19964;-74
2021/05/01 02:28:07;;;;;;;;;;;;;;;2.81;54.60;101369.84;5028190;28;19939;-73
2021/05/01 02:30:32;;;;;;;;;;;;;;;2.80;55.37;101369.03;5029009;28;19921;-73
2021/05/01 02:32:58;;;;;;;;;;;;;;;2.81;54.98;101380.63;5033064;28;19970;-74
2021/05/01 02:35:24;;;;;;;;;;;;;;;2.77;54.84;101376.69;5027490;28;19950;-73
2021/05/01 02:37:49;;;;;;;;;;;;;;;2.74;54.93;101374.41;5024685;28;19924;-73
2021/05/01 02:40:15;;;;;;;;;;;;;;;2.71;54.47;101374.84;5032112;28;19920;-73
2021/05/01 02:42:40;;;;;;;;;;;;;;;2.71;54.59;101377.53;5017638;28;19916;-73
2021/05/01 02:45:06;;;;;;;;;;;;;;;2.68;55.09;101376.06;5031552;28;19917;-73
2021/05/01 02:47:32;;;;;;;;;;;;;;;2.73;55.21;101378.13;5032561;28;19916;-73
2021/05/01 02:49:57;;;;;;;;;;;;;;;2.69;54.52;101375.03;5034345;28;19913;-73
2021/05/01 02:52:22;;;;;;;;;;;;;;;2.63;55.17;101378.56;5030566;28;19913;-73
2021/05/01 02:54:47;;;;;;;;;;;;;;;2.60;55.19;101379.78;5032056;28;19920;-73
2021/05/01 02:57:12;;;;;;;;;;;;;;;2.57;55.01;101374.00;5036195;28;19998;-73
2021/05/01 02:59:38;;;;;;;;;;;;;;;2.54;54.75;101369.88;5013156;28;19962;-73
2021/05/01 03:02:03;;;;;;;;;;;;;;;2.52;54.93;101366.53;5029142;28;19917;-73
2021/05/01 03:04:28;;;;;;;;;;;;;;;2.51;54.50;101369.44;5031730;28;20335;-73
2021/05/01 03:06:53;;;;;;;;;;;;;;;2.50;54.97;101368.59;5026783;28;19921;-73
2021/05/01 03:09:19;;;;;;;;;;;;;;;2.44;55.13;101364.06;5031579;28;19913;-73
2021/05/01 03:11:44;;;;;;;;;;;;;;;2.41;55.23;101361.78;5035541;28;19913;-73
2021/05/01 03:14:09;;;;;;;;;;;;;;;2.39;55.13;101366.53;5037964;28;20286;-73
2021/05/01 03:16:34;;;;;;;;;;;;;;;2.40;55.02;101360.09;5038953;28;19955;-74
2021/05/01 03:19:00;;;;;;;;;;;;;;;2.42;54.66;101355.34;5036033;28;19928;-73
2021/05/01 03:21:25;;;;;;;;;;;;;;;2.45;54.98;101354.94;5040136;28;19921;-74
2021/05/01 03:23:51;;;;;;;;;;;;;;;2.49;54.98;101355.38;5036901;28;19924;-74
2021/05/01 03:26:17;;;;;;;;;;;;;;;2.53;55.25;101352.03;5041742;28;20096;-73
2021/05/01 03:28:43;;;;;;;;;;;;;;;2.52;54.95;101358.47;5030494;28;19962;-73
2021/05/01 03:31:08;;;;;;;;;;;;;;;2.49;54.76;101356.19;5022345;28;20012;-73
2021/05/01 03:33:33;;;;;;;;;;;;;;;2.44;54.81;101358.66;5038139;28;20325;-73
2021/05/01 03:35:59;;;;;;;;;;;;;;;2.38;55.26;101359.50;5018903;28;19913;-73
2021/05/01 03:38:24;;;;;;;;;;;;;;;2.37;55.01;101360.50;5035882;28;19928;-74
2021/05/01 03:40:49;;;;;;;;;;;;;;;2.35;54.74;101370.69;5030226;28;20312;-73
2021/05/01 03:43:15;;;;;;;;;;;;;;;2.35;55.20;101357.22;5039810;28;19917;-74
2021/05/01 03:45:40;;;;;;;;;;;;;;;2.38;55.37;101359.50;5035589;28;19917;-74
2021/05/01 03:48:05;;;;;;;;;;;;;;;2.40;55.15;101368.16;5037620;28;19920;-74
2021/05/01 03:50:31;;;;;;;;;;;;;;;2.40;54.94;101357.41;5035046;28;20341;-73
2021/05/01 03:52:57;;;;;;;;;;;;;;;2.42;54.98;101361.56;5037747;28;19913;-72
2021/05/01 03:55:22;;;;;;;;;;;;;;;2.48;55.03;101364.47;5036303;28;20255;-73
2021/05/01 03:57:47;;;;;;;;;;;;;;;2.52;55.23;101354.94;5054055;28;19928;-73
2021/05/01 04:00:12;;;;;;;;;;;;;;;2.56;54.46;101356.19;5035260;28;19920;-73
2021/05/01 04:02:39;;;;;;;;;;;;;;;2.61;54.85;101359.91;5038534;28;19913;-73
2021/05/01 04:05:05;;;;;;;;;;;;;;;2.67;54.77;101358.25;5020766;28;19970;-74
2021/05/01 04:07:30;;;;;;;;;;;;;;;2.75;54.38;101357.22;5039024;28;19992;-73
2021/05/01 04:09:55;;;;;;;;;;;;;;;2.81;55.04;101353.69;5036504;28;19921;-74
2021/05/01 04:12:21;;;;;;;;;;;;;;;2.91;54.16;101358.66;5021105;28;19976;-73
2021/05/01 04:14:46;;;;;;;;;;;;;;;3.04;54.32;101351.38;5037439;28;19920;-74
2021/05/01 04:17:11;;;;;;;;;;;;;;;3.11;54.12;101352.22;5039630;28;19913;-73
2021/05/01 04:19:36;;;;;;;;;;;;;;;3.17;54.95;101353.25;5049181;28;19920;-74
2021/05/01 04:22:04;;;;;;;;;;;;;;;3.24;54.83;101347.81;5028486;28;19920;-73
2021/05/01 04:24:30;;;;;;;;;;;;;;;3.38;54.84;101344.03;5032828;28;19936;-74
2021/05/01 04:26:56;;;;;;;;;;;;;;;3.49;54.19;101337.16;5031023;28;20494;-73
2021/05/01 04:29:21;;;;;;;;;;;;;;;3.59;54.26;101340.25;5028365;28;19921;-73
2021/05/01 04:31:46;;;;;;;;;;;;;;;3.66;54.19;101341.03;5034772;28;19913;-74
2021/05/01 04:34:12;;;;;;;;;;;;;;;3.75;53.95;101338.94;5031704;28;20321;-73
2021/05/01 04:36:37;;;;;;;;;;;;;;;3.87;54.34;101337.19;5051122;28;19919;-73
2021/05/01 04:39:02;;;;;;;;;;;;;;;3.95;53.87;101342.34;5032065;28;19924;-73
2021/05/01 04:41:27;;;;;;;;;;;;;;;4.04;53.93;101342.06;5048325;28;19948;-73
2021/05/01 04:43:53;;;;;;;;;;;;;;;4.08;53.94;101332.53;5028227;28;19976;-73
2021/05/01 04:46:19;;;;;;;;;;;;;;;4.17;53.95;101342.84;5032709;28;19917;-73
2021/05/01 04:48:44;;;;;;;;;;;;;;;4.21;53.64;101346.75;5034732;28;19917;-74
2021/05/01 04:51:10;;;;;;;;;;;;;;;4.23;54.03;101347.38;5017656;28;19912;-73
2021/05/01 04:53:35;;;;;;;;;;;;;;;4.26;54.01;101346.13;5006696;28;19944;-74
2021/05/01 04:56:00;;;;;;;;;;;;;;;4.32;54.07;101345.22;5025620;28;19959;-73
2021/05/01 04:58:25;;;;;;;;;;;;;;;4.40;54.22;101346.84;5031479;28;19909;-74
2021/05/01 05:00:51;;;;;;;;;;;;;;;4.45;54.18;101341.63;5033893;28;19912;-74
2021/05/01 05:03:16;;;;;;;;;;;;;;;4.50;53.55;101349.03;5033801;28;19999;-74
2021/05/01 05:05:41;;;;;;;;;;;;;;;4.52;53.60;101345.06;5029841;28;19924;-73
2021/05/01 05:08:06;;;;;;;;;;;;;;;4.56;54.31;101346.31;5022631;28;19916;-73
2021/05/01 05:10:32;;;;;;;;;;;;;;;4.61;54.11;101353.72;5030349;28;19917;-74
2021/05/01 05:12:57;;;;;;;;;;;;;;;4.70;53.93;101363.22;5033812;28;19913;-73
2021/05/01 05:15:22;;;;;;;;;;;;;;;4.92;54.01;101366.34;5031099;28;20427;-74
2021/05/01 05:17:47;;;;;;;;;;;;;;;5.17;55.03;101358.22;5031311;28;19978;-73
2021/05/01 05:20:13;;;;;;;;;;;;;;;5.44;55.71;101363.34;5025089;28;20003;-73
2021/05/01 05:22:38;;;;;;;;;;;;;;;5.63;55.72;101367.69;5027736;28;19927;-73
2021/05/01 05:25:04;;;;;;;;;;;;;;;5.76;55.56;101372.94;5029512;28;19921;-73
2021/05/01 05:27:29;;;;;;;;;;;;;;;5.90;55.40;101361.94;5032908;28;19913;-73
2021/05/01 05:29:54;;;;;;;;;;;;;;;5.93;55.04;101370.44;5032643;28;19913;-74
2021/05/01 05:32:20;;;;;;;;;;;;;;;5.95;54.78;101360.22;5027800;28;19962;-74
2021/05/01 05:34:45;;;;;;;;;;;;;;;5.97;54.59;101365.41;5031115;28;19912;-73
2021/05/01 05:37:11;;;;;;;;;;;;;;;5.99;54.65;101368.72;5013579;28;19968;-74
2021/05/01 05:39:36;;;;;;;;;;;;;;;6.04;54.69;101368.84;5032618;28;20077;-74
2021/05/01 05:42:01;;;;;;;;;;;;;;;6.07;54.67;101373.81;5033527;28;19920;-74
2021/05/01 05:44:27;;;;;;;;;;;;;;;6.14;54.70;101371.84;5030291;28;19916;-73
2021/05/01 05:46:52;;;;;;;;;;;;;;;6.18;54.65;101373.03;5030531;28;19959;-73
2021/05/01 05:49:17;;;;;;;;;;;;;;;6.26;54.77;101371.06;5017455;28;19921;-74
2021/05/01 05:51:43;;;;;;;;;;;;;;;6.35;55.11;101381.31;5014504;28;19919;-75
2021/05/01 05:54:08;;;;;;;;;;;;;;;6.44;55.37;101379.94;5029134;28;20436;-74
2021/05/01 05:56:34;;;;;;;;;;;;;;;6.53;56.19;101382.31;5030549;28;19913;-74
2021/05/01 05:58:59;;;;;;;;;;;;;;;6.56;56.08;101376.44;5030384;28;20020;-74
2021/05/01 06:01:25;;;;;;;;;;;;;;;6.57;55.88;101381.59;5026993;28;19913;-73
2021/05/01 06:03:50;;;;;;;;;;;;;;;6.60;55.96;101377.59;5048010;28;20381;-73
2021/05/01 06:06:18;;;;;;;;;;;;;;;6.66;56.14;101382.94;5024305;28;19991;-72
2021/05/01 06:08:43;;;;;;;;;;;;;;;6.74;56.65;101383.63;5027296;28;19913;-74
2021/05/01 06:11:09;;;;;;;;;;;;;;;6.79;57.19;101387.31;5045410;28;20007;-72
2021/05/01 06:13:35;;;;;;;;;;;;;;;6.85;57.02;101385.56;5026606;28;19920;-74
2021/05/01 06:16:00;;;;;;;;;;;;;;;6.90;56.77;101382.94;5027484;28;19913;-73
2021/05/01 06:18:26;;;;;;;;;;;;;;;6.95;56.68;101385.78;5031681;28;19921;-72
2021/05/01 06:20:51;;;;;;;;;;;;;;;7.03;57.15;101385.44;4998457;28;19963;-73
2021/05/01 06:23:17;;;;;;;;;;;;;;;7.10;57.24;101388.03;5047049;28;20290;-73
2021/05/01 06:25:43;;;;;;;;;;;;;;;7.16;57.98;101381.66;5028996;28;19932;-72
2021/05/01 06:28:08;;;;;;;;;;;;;;;7.23;58.00;101393.22;5032876;28;20283;-72
2021/05/01 06:30:38;;;;;;;;;;;;;;;7.28;58.30;101389.78;5045876;28;19913;-72
2021/05/01 06:33:04;;;;;;;;;;;;;;;7.32;57.86;101386.38;5029525;28;19913;-72
2021/05/01 06:35:29;;;;;;;;;;;;;;;7.37;57.93;101377.53;5029409;28;19923;-72
2021/05/01 06:37:54;;;;;;;;;;;;;;;7.44;58.41;101382.81;5026024;28;19913;-72
2021/05/01 06:40:24;;;;;;;;;;;;;;;7.48;57.96;101376.69;5022515;28;19913;-72
2021/05/01 06:43:03;;;;;;;;;;;;;;;7.52;57.88;101380.56;5031194;28;20405;-73
2021/05/01 06:45:28;;;;;;;;;;;;;;;7.58;58.13;101378.78;5029563;28;20424;-73
2021/05/01 06:47:54;;;;;;;;;;;;;;;7.63;58.35;101375.34;5030372;28;19913;-72
2021/05/01 06:50:24;;;;;;;;;;;;;;;7.69;58.50;101374.38;5022909;28;20107;-73
2021/05/01 06:52:49;;;;;;;;;;;;;;;7.76;58.76;101375.09;5018163;28;19940;-72
2021/05/01 06:55:15;;;;;;;;;;;;;;;7.82;58.75;101384.97;5015852;28;19920;-72
2021/05/01 06:57:45;;;;;;;;;;;;;;;7.88;59.08;101381.28;5012312;28;19913;-73
2021/05/01 07:00:10;;;;;;;;;;;;;;;7.95;59.27;101381.97;5045750;28;19921;-73
2021/05/01 07:02:39;;;;;;;;;;;;;;;8.01;59.27;101383.72;5026465;28;19931;-72
2021/05/01 07:05:04;;;;;;;;;;;;;;;8.09;59.21;101387.13;5027780;28;19940;-73
2021/05/01 07:07:30;;;;;;;;;;;;;;;8.11;59.44;101382.28;5035747;28;20373;-73
2021/05/01 07:09:55;;;;;;;;;;;;;;;8.13;59.08;101385.56;5023909;28;19913;-71
2021/05/01 07:12:21;;;;;;;;;;;;;;;8.18;59.06;101389.22;5012929;28;20304;-73
2021/05/01 07:14:46;;;;;;;;;;;;;;;8.23;58.90;101391.19;5007846;28;19966;-72
2021/05/01 07:17:12;;;;;;;;;;;;;;;8.26;58.95;101390.69;5030434;28;19913;-72
2021/05/01 07:19:38;;;;;;;;;;;;;;;8.30;58.49;101391.88;5047200;28;19912;-71
2021/05/01 07:22:03;;;;;;;;;;;;;;;8.35;58.69;101383.00;5032902;28;19956;-73
2021/05/01 07:24:28;;;;;;;;;;;;;;;8.42;58.65;101389.13;5014155;28;19921;-72
2021/05/01 07:26:54;;;;;;;;;;;;;;;8.47;58.91;101386.50;5025373;28;20601;-72
2021/05/01 07:29:19;;;;;;;;;;;;;;;8.54;58.58;101391.75;5042996;28;19943;-73
2021/05/01 07:31:45;;;;;;;;;;;;;;;8.58;58.58;101396.47;5013870;28;20362;-72
2021/05/01 07:34:12;;;;;;;;;;;;;;;8.65;58.97;101390.91;5014727;28;19960;-73
2021/05/01 07:36:41;;;;;;;;;;;;;;;8.71;58.46;101397.25;5018425;28;19936;-73
2021/05/01 07:39:10;;;;;;;;;;;;;;;8.83;58.50;101397.97;5027391;28;19913;-73
2021/05/01 07:41:35;;;;;;;;;;;;;;;8.97;58.33;101395.75;5028120;28;19998;-74
2021/05/01 07:44:00;;;;;;;;;;;;;;;9.07;57.96;101401.34;5027492;28;20339;-73
2021/05/01 07:46:27;;;;;;;;;;;;;;;9.11;58.23;101399.75;5044949;28;19913;-73
2021/05/01 07:48:52;;;;;;;;;;;;;;;9.12;58.34;101406.88;5008475;28;20256;-73
2021/05/01 07:51:17;;;;;;;;;;;;;;;9.09;58.55;101410.09;5031474;28;19921;-73
2021/05/01 07:53:43;;;;;;;;;;;;;;;9.07;58.88;101407.59;5022918;28;19912;-72
2021/05/01 07:56:08;;;;;;;;;;;;;;;9.18;59.04;101414.03;5030275;28;19913;-72
2021/05/01 07:58:33;;;;;;;;;;;;;;;9.10;59.08;101411.72;5029350;28;19920;-72
2021/05/01 08:00:58;;;;;;;;;;;;;;;8.98;59.81;101408.28;5024800;28;19972;-73
2021/05/01 08:03:24;;;;;;;;;;;;;;;8.94;60.39;101413.38;5050028;28;19939;-73
2021/05/01 08:05:49;;;;;;;;;;;;;;;9.03;60.03;101416.50;5032171;28;20374;-73
2021/05/01 08:08:14;;;;;;;;;;;;;;;9.07;60.24;101417.66;5050359;28;20358;-73
2021/05/01 08:10:40;;;;;;;;;;;;;;;9.19;60.12;101420.28;5034205;28;19966;-72
2021/05/01 08:13:06;;;;;;;;;;;;;;;9.29;60.09;101425.91;5031473;28;19967;-73
2021/05/01 08:15:33;;;;;;;;;;;;;;;9.38;60.07;101426.28;5033475;28;19920;-73
2021/05/01 08:17:59;;;;;;;;;;;;;;;9.45;59.77;101429.66;5018952;28;19963;-72
2021/05/01 08:20:24;;;;;;;;;;;;;;;9.46;59.90;101426.69;5034845;28;20274;-72
2021/05/01 08:22:49;;;;;;;;;;;;;;;9.55;60.19;101429.81;5036813;28;19917;-73
2021/05/01 08:25:15;;;;;;;;;;;;;;;9.61;59.84;101428.00;5028598;28;19956;-72
2021/05/01 08:27:41;;;;;;;;;;;;;;;9.61;60.04;101434.25;5038399;28;20273;-73
2021/05/01 08:30:07;;;;;;;;;;;;;;;9.64;60.14;101439.19;5031514;28;20027;-73
2021/05/01 08:32:32;;;;;;;;;;;;;;;9.64;59.89;101439.19;5017804;28;20288;-74
2021/05/01 08:34:57;;;;;;;;;;;;;;;9.64;59.87;101433.75;5023020;28;20003;-73
2021/05/01 08:37:23;;;;;;;;;;;;;;;9.56;60.06;101442.34;5025190;28;20317;-73
2021/05/01 08:39:49;;;;;;;;;;;;;;;9.52;60.43;101433.88;5013311;28;19920;-73
2021/05/01 08:42:14;;;;;;;;;;;;;;;9.66;60.66;101437.03;5036132;28;20369;-73
2021/05/01 08:44:39;;;;;;;;;;;;;;;9.89;60.44;101443.31;5022291;28;20020;-73
2021/05/01 08:47:05;;;;;;;;;;;;;;;10.07;59.95;101443.00;5025312;28;19920;-73
2021/05/01 08:49:31;;;;;;;;;;;;;;;10.22;60.34;101434.19;5015062;28;20028;-72
2021/05/01 08:51:56;;;;;;;;;;;;;;;10.34;60.01;101436.78;5026788;28;19912;-72
2021/05/01 08:54:22;;;;;;;;;;;;;;;10.36;59.97;101431.91;5023160;28;19914;-73
2021/05/01 08:56:47;;;;;;;;;;;;;;;10.38;59.91;101432.47;5030755;28;20330;-72
2021/05/01 08:59:12;;;;;;;;;;;;;;;10.31;59.95;101427.25;5029583;28;19913;-72
2021/05/01 09:01:38;;;;;;;;;;;;;;;10.25;60.46;101430.94;5031981;28;19927;-72
2021/05/01 09:04:04;;;;;;;;;;;;;;;10.25;60.47;101432.84;5015065;28;19917;-72
2021/05/01 09:06:29;;;;;;;;;;;;;;;10.47;60.26;101430.09;5030413;28;19914;-73
2021/05/01 09:09:12;;;;;;;;;;;;;;;10.64;59.82;101431.66;5024286;28;19913;-72
2021/05/01 09:11:44;;;;;;;;;;;;;;;10.67;59.97;101435.78;5034600;28;20276;-73
2021/05/01 09:14:22;;;;;;;;;;;;;;;10.82;59.78;101433.16;5033048;28;19916;-73
2021/05/01 09:16:56;;;;;;;;;;;;;;;10.95;59.50;101431.91;5032666;28;20328;-73
2021/05/01 09:19:37;;;;;;;;;;;;;;;10.97;59.57;101435.22;5035788;28;19913;-71
2021/05/01 09:22:09;;;;;;;;;;;;;;;10.87;59.57;101435.13;5012064;28;19912;-70
2021/05/01 09:24:34;;;;;;;;;;;;;;;10.74;60.05;101438.28;5010872;28;19917;-73
2021/05/01 09:27:00;;;;;;;;;;;;;;;10.72;60.20;101440.44;5029227;28;21923;-72
2021/05/01 09:29:30;;;;;;;;;;;;;;;10.73;60.38;101429.28;5033200;28;19913;-71
2021/05/01 09:31:56;;;;;;;;;;;;;;;10.80;60.31;101434.50;5027666;28;19912;-71
2021/05/01 09:34:33;;;;;;;;;;;;;;;10.76;60.36;101438.84;5017980;28;19920;-72
2021/05/01 09:36:58;;;;;;;;;;;;;;;10.87;59.38;101443.31;5027732;28;19921;-73
2021/05/01 09:39:24;;;;;;;;;;;;;;;10.96;58.83;101441.75;5024323;28;20290;-74
2021/05/01 09:41:50;;;;;;;;;;;;;;;11.00;58.08;101440.16;5044768;28;19921;-73
2021/05/01 09:44:19;;;;;;;;;;;;;;;11.01;57.68;101441.78;5015045;28;19959;-74
2021/05/01 09:46:48;;;;;;;;;;;;;;;10.99;57.40;101446.69;5029016;28;19923;-74
2021/05/01 09:49:25;;;;;;;;;;;;;;;10.97;57.23;101446.13;5020419;28;19912;-72
2021/05/01 09:51:53;;;;;;;;;;;;;;;11.00;56.83;101440.16;5036504;28;19919;-73
2021/05/01 09:54:34;;;;;;;;;;;;;;;11.09;56.67;101449.50;5033372;28;19913;-73
2021/05/01 09:57:01;;;;;;;;;;;;;;;11.33;56.27;101449.13;5032438;28;19920;-72
2021/05/01 09:59:42;;;;;;;;;;;;;;;11.43;55.44;101443.75;5026109;28;19921;-74
2021/05/01 10:02:08;;;;;;;;;;;;;;;11.42;54.80;101441.25;5025120;28;19928;-73
2021/05/01 10:04:33;;;;;;;;;;;;;;;11.51;54.62;101440.53;5013300;28;19924;-74
2021/05/01 10:06:59;;;;;;;;;;;;;;;11.58;54.09;101434.00;5043526;28;20019;-73
2021/05/01 10:09:25;;;;;;;;;;;;;;;11.81;53.85;101441.75;5026398;28;20289;-74
2021/05/01 10:11:51;;;;;;;;;;;;;;;12.01;53.47;101451.19;5046059;28;19955;-75
2021/05/01 10:14:17;;;;;;;;;;;;;;;12.29;53.09;101434.31;5026979;28;19952;-74
2021/05/01 10:16:52;;;;;;;;;;;;;;;12.39;52.64;101434.34;5020638;28;20361;-74
2021/05/01 10:19:17;;;;;;;;;;;;;;;12.43;52.38;101440.91;5028077;28;20325;-74
2021/05/01 10:21:44;;;;;;;;;;;;;;;12.28;52.09;101437.34;5023770;28;19916;-74
2021/05/01 10:24:09;;;;;;;;;;;;;;;12.14;52.15;101439.72;5004907;28;20351;-75
2021/05/01 10:26:41;;;;;;;;;;;;;;;12.20;51.77;101441.41;5031597;28;19913;-74
2021/05/01 10:29:07;;;;;;;;;;;;;;;12.33;51.56;101431.84;5031543;28;19913;-74
2021/05/01 10:31:43;;;;;;;;;;;;;;;12.43;51.49;101429.97;5013436;28;19975;-74
2021/05/01 10:34:08;;;;;;;;;;;;;;;12.13;51.73;101424.41;5027137;28;20323;-73
2021/05/01 10:36:34;;;;;;;;;;;;;;;12.07;51.88;101430.97;5030236;28;20015;-75
2021/05/01 10:39:05;;;;;;;;;;;;;;;12.07;51.92;101436.44;5031100;28;20358;-74
2021/05/01 10:41:31;;;;;;;;;;;;;;;12.02;51.26;101441.88;5012967;28;19917;-74
2021/05/01 10:43:57;;;;;;;;;;;;;;;11.91;51.29;101444.56;5009648;28;19932;-76
2021/05/01 10:46:23;;;;;;;;;;;;;;;11.74;51.12;101446.66;5020009;28;19917;-74
2021/05/01 10:48:52;;;;;;;;;;;;;;;11.56;50.92;101442.44;5031080;28;19913;-75
2021/05/01 10:51:21;;;;;;;;;;;;;;;11.52;51.47;101431.22;5033626;28;19913;-75
2021/05/01 10:53:50;;;;;;;;;;;;;;;11.55;50.89;101430.69;5032068;28;19920;-74
2021/05/01 10:56:15;;;;;;;;;;;;;;;11.27;50.88;101444.72;5027107;28;19913;-75
2021/05/01 10:58:44;;;;;;;;;;;;;;;11.13;50.88;101440.78;5017972;28;19971;-74
2021/05/01 11:01:27;;;;;;;;;;;;;;;11.07;51.16;101446.19;5035430;28;20133;-76
2021/05/01 11:03:53;;;;;;;;;;;;;;;10.91;50.69;101436.25;5018458;28;19913;-74
2021/05/01 11:06:22;;;;;;;;;;;;;;;10.81;51.15;101430.72;5020365;28;20003;-73
2021/05/01 11:08:52;;;;;;;;;;;;;;;10.77;51.26;101432.31;5008840;28;19928;-74
2021/05/01 11:11:17;;;;;;;;;;;;;;;10.65;51.62;101433.28;5027263;28;19913;-75
2021/05/01 11:13:43;;;;;;;;;;;;;;;10.77;51.46;101435.03;5014266;28;19935;-74
2021/05/01 11:16:09;;;;;;;;;;;;;;;10.86;51.03;101434.31;5030308;28;20288;-74
2021/05/01 11:18:39;;;;;;;;;;;;;;;10.83;50.44;101439.44;5008614;28;19923;-75
2021/05/01 11:21:05;;;;;;;;;;;;;;;10.76;50.26;101433.41;5012412;28;20382;-74
2021/05/01 11:23:30;;;;;;;;;;;;;;;10.77;50.51;101435.84;5047263;28;20373;-73
2021/05/01 11:25:59;;;;;;;;;;;;;;;10.81;49.88;101436.16;5027676;28;19920;-75
2021/05/01 11:28:24;;;;;;;;;;;;;;;11.07;49.62;101437.19;5011172;28;20516;-74
2021/05/01 11:30:50;;;;;;;;;;;;;;;11.29;49.52;101437.06;5025709;28;20128;-75
2021/05/01 11:33:15;;;;;;;;;;;;;;;11.70;48.20;101438.16;5034846;28;19956;-74
2021/05/01 11:35:41;;;;;;;;;;;;;;;11.88;47.28;101434.16;5048560;28;19920;-74
2021/05/01 11:38:06;;;;;;;;;;;;;;;11.92;46.60;101435.28;5027787;28;20357;-74
2021/05/01 11:40:34;;;;;;;;;;;;;;;11.84;46.56;101432.19;5022596;28;19912;-74
2021/05/01 11:43:00;;;;;;;;;;;;;;;11.78;46.26;101434.94;5034243;28;19924;-74
2021/05/01 11:45:49;;;;;;;;;;;;;;;11.72;46.33;101437.88;5018974;28;19916;-74
2021/05/01 11:48:17;;;;;;;;;;;;;;;11.75;46.22;101434.63;5023729;28;19928;-74
2021/05/01 11:50:42;;;;;;;;;;;;;;;11.87;45.82;101432.53;5027168;28;19920;-73
2021/05/01 11:53:13;;;;;;;;;;;;;;;11.97;45.44;101426.28;5028687;28;19916;-74
2021/05/01 11:55:59;;;;;;;;;;;;;;;12.13;45.28;101432.63;5026533;28;20118;-74
2021/05/01 11:58:34;;;;;;;;;;;;;;;12.19;44.81;101426.06;5027422;28;19929;-74
2021/05/01 12:01:11;;;;;;;;;;;;;;;12.10;44.90;101430.44;5014600;28;19913;-73
2021/05/01 12:03:37;;;;;;;;;;;;;;;12.19;44.94;101429.66;5017791;28;19917;-74
2021/05/01 12:06:02;;;;;;;;;;;;;;;12.37;44.28;101431.06;5030077;28;19917;-74
2021/05/01 12:08:27;;;;;;;;;;;;;;;12.39;43.65;101445.28;5037121;28;19913;-74
2021/05/01 12:10:53;;;;;;;;;;;;;;;12.43;44.08;101427.22;5014288;28;19920;-74
2021/05/01 12:13:20;;;;;;;;;;;;;;;12.39;43.91;101433.53;5035281;28;19917;-73
2021/05/01 12:15:49;;;;;;;;;;;;;;;12.21;43.95;101421.16;5037944;28;19921;-75
2021/05/01 12:18:14;;;;;;;;;;;;;;;12.07;44.84;101425.50;5042695;28;20338;-75
2021/05/01 12:20:39;;;;;;;;;;;;;;;11.98;45.21;101428.75;5024711;28;19959;-74
2021/05/01 12:23:08;;;;;;;;;;;;;;;12.01;44.86;101426.59;5038197;28;19920;-76
2021/05/01 12:25:33;;;;;;;;;;;;;;;11.91;45.02;101422.69;5025674;28;20409;-75
2021/05/01 12:27:59;;;;;;;;;;;;;;;11.91;44.80;101422.69;5026321;28;20424;-75
2021/05/01 12:30:36;;;;;;;;;;;;;;;12.08;44.63;101424.41;5025552;28;19913;-75
2021/05/01 12:33:20;;;;;;;;;;;;;;;12.13;44.42;101414.31;5030377;28;20378;-74
2021/05/01 12:35:46;;;;;;;;;;;;;;;12.27;43.89;101425.56;5029137;28;19913;-74
2021/05/01 12:38:11;;;;;;;;;;;;;;;12.31;44.42;101423.13;5021774;28;19919;-75
2021/05/01 12:40:38;;;;;;;;;;;;;;;12.37;44.18;101420.13;5034293;28;19913;-76